My Meet Scores
Claire Cahill, Gym Kinetics Gymnastics - MyMeetScores.com
Top100 | Top Teams | Upcoming Meets | Completed Meets | Latest | Add Scores | Help| Support | Bookmark and Share

Claire Cahill, Gym Kinetics Gymnastics
Personal Bests
LevelVault BarsBeamFloorAA
39.4258.800 8.0008.82535.050
48.4008.400 8.8759.02534.000
59.1008.150 8.6008.70033.000
XP9.3259.250 8.9009.37536.225
Meet Scores
Date Meet Team Session Level Division Vault Bars Beam Floor AA
2020-02-21 Kinetic Classic Gym Kinetics Gymnastics 11 XP Middle 9.325 18T 9.200 15 8.275 39 9.050 38T 35.850 29T
2020-01-31 Chow's Challenge Gym Kinetics Gymnastics A5 XP Sr A 9.050 4T 8.925 5 8.000 7T 9.000 6 34.975 6
2020-01-17 2020 Bravo Classic Gym Kinetics Gymnastics 1A XP Jr 9.100 9 9.025 4 8.900 8 9.200 8T 36.225 8
2020-01-10 Leenda's Island Adventure Gym Kinetics Gymnastics GG5 XP 13 Year Ol 8.900 4T 8.850 7 8.450 9 8.975 11 35.175 9
2019-12-20 Aspire Classic - 2019 Gym Kinetics Gymnastics 4B XP Middle 9.100 2 9.200 4T 8.300 9 9.325 7T 35.925 4
2019-12-06 Ultimate Wish Classic Gym Kinetics Gymnastics 4 XP JR 8.800 12T 9.250 4T 8.150 13 9.375 4T 35.575 9
2019-03-01 NGCD Academy's 2019 Flip'r Invitational Gym Kinetics Gymnastics 11 5 Sr 9.100 9 0.000 16 8.100 15 0.000 16 17.200 16
2018-02-16 Big Classic United Gymnastics Academy 4A 5 Child D 8.550 8 8.000 11T 7.800 11 8.075 13 32.425 12
2018-01-26 2018 UGA Classic United Gymnastics Academy B6 5 Junior 8.475 14 8.150 12 8.300 10T 8.075 14 33.000 14
2018-01-12 St Jude Benefit Meet United Gymnastics Academy 7A 5 SrA 8.300 16T 7.400 16T 7.450 16 8.350 14 31.500 15
2017-12-15 2017 Aspire Classic United Gymnastics Academy 5A 5 Older 8.150 14 6.550 19 8.600 11 8.700 14T 32.000 16
2017-12-08 St. Nick Invite United Gymnastics Academy 4 5 SrA 8.250 20T 7.100 21 7.050 22 8.475 14 30.875 21
2017-03-10 2017 Illinois Level 4 State Championships United Gymnastics Academy 5 4 Jr D 8.400 20T 8.300 24 8.600 27 8.125 29T 33.425 28
2017-02-17 Big Classic United Gymnastics Academy B 4 Child C 8.275 43 7.900 47 8.700 37 8.000 44 32.875 47
2017-01-27 2017 UGA Invitational United Gymnastics Academy C12 4 Senior 8.125 15 8.400 12 8.450 5 9.025 5 34.000 10
2017-01-13 Legacy Elite Winter Classic United Gymnastics Academy B5 4 ChB 8.150 11 8.075 10 8.450 12 8.500 13 33.175 12
2016-12-16 2016 Aspire Classic United Gymnastics Academy 6 4 Older 8.050 22 7.650 19 8.650 13T 8.500 17 32.850 17
2016-12-09 St. Nick Invite United Gymnastics Academy 6 4 Senior 8.125 21 7.775 27 8.875 14 8.500 18T 33.275 24
2016-03-04 2016 Illinois Level 3 State Championships United Gymnastics Academy 3 Senior-A 9.425 5 8.800 16 8.000 18 8.825 17 35.050 18
2016-02-20 Big Classic United Gymnastics Academy 4B 3 Child C 9.275 7T 8.750 13 8.000 17 8.450 17 34.475 17
Get your scores on
a t-shirt, pin, or hoodie

www.lazysuits.com